Terminal Aerodrome Forecast
Issued by NWS North Platte, NE

Home | Current Version | Previous Version | Graphics & Text | Print | Product List | Glossary On
Versions: 1 2 3 4 5 6 7 8 9 10 11 12 13 14
000
FTUS43 KLBF 011100
TAFVTN
TAF
KVTN 011121Z 0112/0212 35007KT P6SM SCT090
     FM011300 35008KT P6SM SCT200
     FM011900 34008KT P6SM SKC
     FM020000 13007KT P6SM SKC
     FM020600 18007KT P6SM SCT200=

USA.gov is the U.S. government's official web portal to all federal, state and local government web resources and services.